Time;durP1;ratioP1;P1;durP2;ratioP2;P2;SDS_P1;SDS_P2;PMS_P1;PMS_P2;Temp;Humidity;BMP_temperature;BMP_pressure;BME280_temperature;BME280_humidity;BME280_pressure;Samples;Min_cycle;Max_cycle;Signal;HPM_P1;HPM_P2
2021/12/17 00:01:47;;;;;;;9.40;6.00;;;3.10;99.90;;;;;;4143298;28;20736;-63
2021/12/17 00:03:50;;;;;;;8.63;5.80;;;3.10;99.90;;;;;;4142022;28;20287;-62
2021/12/17 00:06:05;;;;;;;9.37;5.40;;;3.10;99.90;;;;;;4143619;28;20293;-65
2021/12/17 00:08:06;;;;;;;7.73;4.60;;;3.10;99.90;;;;;;4142176;28;20275;-61
2021/12/17 00:10:12;;;;;;;7.33;4.77;;;3.20;99.90;;;;;;4143679;28;20723;-67
2021/12/17 00:12:16;;;;;;;7.03;4.97;;;3.20;99.90;;;;;;4142358;28;20275;-61
2021/12/17 00:14:26;;;;;;;9.30;6.17;;;3.20;99.90;;;;;;4142717;28;20429;-62
2021/12/17 00:16:32;;;;;;;9.60;5.80;;;3.20;99.90;;;;;;4142104;28;20275;-62
2021/12/17 00:18:44;;;;;;;7.40;4.60;;;3.20;99.90;;;;;;4143472;28;20271;-62
2021/12/17 00:40:15;;;;;;;6.93;4.40;;;3.20;99.90;;;;;;4141994;28;20279;-62
2021/12/17 00:48:37;;;;;;;19.03;9.97;;;3.50;99.90;;;;;;4143058;28;20325;-61
2021/12/17 00:51:20;;;;;;;18.83;11.43;;;3.60;99.90;;;;;;4141351;28;20298;-62
2021/12/17 00:53:17;;;;;;;20.43;11.63;;;3.60;99.90;;;;;;4142041;28;20825;-61
2021/12/17 00:55:18;;;;;;;18.93;10.83;;;3.70;99.90;;;;;;4141622;28;20337;-61
2021/12/17 00:57:24;;;;;;;17.87;10.10;;;3.70;99.90;;;;;;4142509;28;20267;-62
2021/12/17 00:59:25;;;;;;;15.77;9.60;;;3.70;99.90;;;;;;4141425;28;20333;-61
2021/12/17 01:01:26;;;;;;;16.47;9.60;;;3.70;99.90;;;;;;4142743;28;20267;-62
2021/12/17 01:03:28;;;;;;;17.37;10.17;;;3.70;99.90;;;;;;4141074;28;20272;-61
2021/12/17 01:05:30;;;;;;;21.93;10.77;;;3.70;99.90;;;;;;4142588;28;20710;-62
2021/12/17 01:07:34;;;;;;;20.20;10.20;;;3.70;99.90;;;;;;4141642;28;20271;-63
2021/12/17 01:09:35;;;;;;;24.60;12.97;;;3.70;99.90;;;;;;4141815;28;20259;-61
2021/12/17 01:11:37;;;;;;;21.87;11.33;;;3.70;99.90;;;;;;4141440;28;20325;-63
2021/12/17 01:13:41;;;;;;;19.90;11.50;;;3.70;99.90;;;;;;4141188;28;20275;-63
2021/12/17 01:15:43;;;;;;;21.40;11.17;;;3.70;99.90;;;;;;4142121;28;20362;-61
2021/12/17 01:17:48;;;;;;;28.60;16.30;;;3.70;99.90;;;;;;4141318;28;20743;-62
2021/12/17 01:24:39;;;;;;;25.17;13.93;;;3.70;99.90;;;;;;4141260;28;20325;-64
2021/12/17 01:35:47;;;;;;;31.40;17.33;;;3.70;99.90;;;;;;4141594;28;20372;-61
2021/12/17 01:42:11;;;;;;;29.37;16.37;;;3.70;99.90;;;;;;4141206;28;20309;-62
2021/12/17 01:44:14;;;;;;;28.03;15.37;;;3.70;99.90;;;;;;4141589;28;20267;-62
2021/12/17 01:46:20;;;;;;;30.67;16.47;;;3.70;99.90;;;;;;4140575;28;20267;-61
2021/12/17 01:48:28;;;;;;;42.27;19.23;;;3.70;99.90;;;;;;4141822;28;20272;-65
2021/12/17 01:59:44;;;;;;;29.00;17.00;;;3.90;99.90;;;;;;4140257;28;20726;-65
2021/12/17 02:01:45;;;;;;;28.87;16.97;;;3.90;99.90;;;;;;4141675;28;21110;-60
2021/12/17 02:03:46;;;;;;;33.77;19.33;;;3.90;99.90;;;;;;4140711;28;20679;-63
2021/12/17 02:05:48;;;;;;;37.90;18.57;;;3.90;99.90;;;;;;4142093;28;20275;-61
2021/12/17 02:07:53;;;;;;;35.47;19.43;;;3.90;99.90;;;;;;4140095;28;20778;-61
2021/12/17 02:28:45;;;;;;;29.60;15.00;;;3.90;99.90;;;;;;4140267;28;20337;-63
2021/12/17 02:33:03;;;;;;;28.45;14.35;;;3.90;99.90;;;;;;4140646;28;20836;-60
2021/12/17 02:37:11;;;;;;;23.13;13.07;;;3.90;99.90;;;;;;4141697;28;20334;-61
2021/12/17 02:46:16;;;;;;;23.93;13.17;;;3.90;99.90;;;;;;4140584;28;20334;-63
2021/12/17 02:48:20;;;;;;;22.90;12.93;;;3.90;99.90;;;;;;4139906;28;20259;-62
2021/12/17 02:50:21;;;;;;;24.43;13.03;;;4.00;99.90;;;;;;4140855;28;20888;-62
2021/12/17 02:52:27;;;;;;;26.70;13.87;;;4.00;99.90;;;;;;4139860;28;20275;-62
2021/12/17 02:54:29;;;;;;;24.80;12.30;;;4.00;99.90;;;;;;4140984;28;20290;-67
2021/12/17 02:56:30;;;;;;;24.17;13.00;;;4.00;99.90;;;;;;4140081;28;20325;-62
2021/12/17 02:58:33;;;;;;;21.33;11.73;;;4.00;99.90;;;;;;4140879;28;21167;-63
2021/12/17 03:00:37;;;;;;;22.13;12.73;;;4.00;99.90;;;;;;4140098;28;20279;-61
2021/12/17 03:02:39;;;;;;;23.30;13.67;;;4.00;99.90;;;;;;4141276;28;20402;-62
2021/12/17 03:04:41;;;;;;;25.73;14.47;;;4.00;99.90;;;;;;4140309;28;20353;-62
2021/12/17 03:06:44;;;;;;;28.33;14.37;;;4.00;99.90;;;;;;4141036;28;20275;-62
2021/12/17 03:08:47;;;;;;;25.93;13.13;;;4.00;99.90;;;;;;4140205;28;20321;-65
2021/12/17 03:10:50;;;;;;;26.47;13.93;;;3.90;99.90;;;;;;4141054;28;20835;-63
2021/12/17 03:13:01;;;;;;;26.80;14.83;;;4.00;99.90;;;;;;4139853;28;21236;-64
2021/12/17 03:15:18;;;;;;;30.13;14.37;;;3.90;99.90;;;;;;4140855;28;20345;-66
2021/12/17 03:17:37;;;;;;;32.80;16.90;;;3.90;99.90;;;;;;4139757;28;20670;-65
2021/12/17 03:24:18;;;;;;;30.57;15.37;;;3.90;99.90;;;;;;4140760;28;20326;-62
2021/12/17 03:26:24;;;;;;;30.73;14.77;;;3.80;99.90;;;;;;4140047;28;20267;-61
2021/12/17 03:28:26;;;;;;;26.93;15.40;;;3.80;99.90;;;;;;4143692;28;20259;-62
2021/12/17 03:30:27;;;;;;;27.87;16.13;;;3.90;99.90;;;;;;4142361;28;20255;-62
2021/12/17 03:32:30;;;;;;;27.13;15.90;;;3.80;99.90;;;;;;4143914;28;20271;-62
2021/12/17 03:34:31;;;;;;;28.17;15.13;;;3.80;99.90;;;;;;4142958;28;20678;-62
2021/12/17 03:36:32;;;;;;;28.90;16.13;;;3.80;99.90;;;;;;4143441;28;20346;-61
2021/12/17 03:38:34;;;;;;;28.37;15.63;;;3.80;99.90;;;;;;4142966;28;20264;-62
2021/12/17 03:40:35;;;;;;;29.30;15.93;;;3.80;99.90;;;;;;4143034;28;20345;-69
2021/12/17 03:42:36;;;;;;;29.00;15.33;;;3.80;99.90;;;;;;4142882;28;20287;-62
2021/12/17 03:44:37;;;;;;;29.30;15.87;;;3.80;99.90;;;;;;4142225;28;20806;-61
2021/12/17 03:46:39;;;;;;;32.60;16.43;;;3.80;99.90;;;;;;4142891;28;20322;-63
2021/12/17 03:48:41;;;;;;;32.57;17.17;;;3.70;99.90;;;;;;4142623;28;20319;-63
2021/12/17 03:50:42;;;;;;;31.07;17.07;;;3.80;99.90;;;;;;4143411;28;20337;-65
2021/12/17 03:52:44;;;;;;;30.50;16.27;;;3.70;99.90;;;;;;4142641;28;20267;-62
2021/12/17 03:54:46;;;;;;;30.40;16.10;;;3.70;99.90;;;;;;4142928;28;20728;-65
2021/12/17 03:56:47;;;;;;;34.00;16.57;;;3.70;99.90;;;;;;4142107;28;20341;-62
2021/12/17 03:58:50;;;;;;;32.60;17.60;;;3.70;99.90;;;;;;4143400;28;20330;-62
2021/12/17 04:00:51;;;;;;;27.00;14.47;;;3.70;99.90;;;;;;4142172;28;20373;-65
2021/12/17 04:02:52;;;;;;;27.47;14.97;;;3.70;99.90;;;;;;4143759;28;20287;-62
2021/12/17 04:04:53;;;;;;;27.67;14.80;;;3.70;99.90;;;;;;4142567;28;20302;-63
2021/12/17 04:06:54;;;;;;;29.20;15.37;;;3.70;99.90;;;;;;4143391;28;20676;-63
2021/12/17 04:08:56;;;;;;;29.63;15.30;;;3.70;99.90;;;;;;4142218;28;20322;-62
2021/12/17 04:11:06;;;;;;;27.40;15.30;;;3.70;99.90;;;;;;4143117;28;20271;-63
2021/12/17 04:13:32;;;;;;;27.17;14.60;;;3.70;99.90;;;;;;4142884;28;20276;-62
2021/12/17 04:15:36;;;;;;;27.47;15.47;;;3.70;99.90;;;;;;4142498;28;20909;-63
2021/12/17 04:17:47;;;;;;;33.27;15.93;;;3.70;99.90;;;;;;4141872;28;20357;-63
2021/12/17 04:19:48;;;;;;;33.13;16.70;;;3.70;99.90;;;;;;4143076;28;20333;-67
2021/12/17 04:21:49;;;;;;;33.90;17.87;;;3.70;99.90;;;;;;4142169;28;20809;-64
2021/12/17 04:23:53;;;;;;;29.93;16.57;;;3.60;99.90;;;;;;4142485;28;20271;-69
2021/12/17 04:25:54;;;;;;;28.70;15.83;;;3.60;99.90;;;;;;4142574;28;20279;-68
2021/12/17 04:27:56;;;;;;;29.73;16.63;;;3.60;99.90;;;;;;4142278;28;20279;-67
2021/12/17 04:29:58;;;;;;;28.83;16.30;;;3.60;99.90;;;;;;4142565;28;20270;-63
2021/12/17 04:31:59;;;;;;;32.53;16.33;;;3.60;99.90;;;;;;4142106;28;20272;-65
2021/12/17 04:34:00;;;;;;;32.97;16.77;;;3.50;99.90;;;;;;4142518;28;20267;-65
2021/12/17 04:36:02;;;;;;;28.63;16.03;;;3.50;99.90;;;;;;4141323;28;20287;-66
2021/12/17 04:38:05;;;;;;;31.53;17.10;;;3.50;99.90;;;;;;4141939;28;20337;-63
2021/12/17 04:40:07;;;;;;;34.80;16.63;;;3.50;99.90;;;;;;4141551;28;20276;-63
2021/12/17 04:42:17;;;;;;;35.10;18.17;;;3.50;99.90;;;;;;4142259;28;20337;-62
2021/12/17 04:57:44;;;;;;;31.40;15.73;;;3.50;99.90;;;;;;4141361;28;20690;-65
2021/12/17 04:59:46;;;;;;;33.53;17.03;;;3.40;99.90;;;;;;4141997;28;20299;-62
2021/12/17 05:01:48;;;;;;;31.07;15.60;;;3.40;99.90;;;;;;4141100;28;20272;-62
2021/12/17 05:03:49;;;;;;;29.53;15.80;;;3.40;99.90;;;;;;4142504;28;20268;-62
2021/12/17 05:05:50;;;;;;;29.67;16.00;;;3.40;99.90;;;;;;4141433;28;20302;-63
2021/12/17 05:07:56;;;;;;;34.00;15.97;;;3.40;99.90;;;;;;4142493;28;20333;-62
2021/12/17 05:18:16;;;;;;;29.80;14.77;;;3.40;99.90;;;;;;4141908;28;20361;-64
2021/12/17 05:19:34;;;;;;;33.90;15.87;;;3.40;99.90;;;;;;4140318;28;20276;-66
2021/12/17 05:21:36;;;;;;;29.20;14.47;;;3.40;99.90;;;;;;4141482;28;20328;-64
2021/12/17 05:23:42;;;;;;;30.73;15.47;;;3.30;99.90;;;;;;4140383;28;20329;-63
2021/12/17 05:25:43;;;;;;;30.53;15.33;;;3.40;99.90;;;;;;4141246;28;20309;-63
2021/12/17 05:27:44;;;;;;;28.87;15.60;;;3.30;99.90;;;;;;4139848;28;20766;-64
2021/12/17 05:29:46;;;;;;;29.73;16.57;;;3.30;99.90;;;;;;4141891;28;20329;-64
2021/12/17 05:31:47;;;;;;;28.40;15.17;;;3.30;99.90;;;;;;4140444;28;20275;-66
2021/12/17 05:33:49;;;;;;;29.90;15.47;;;3.30;99.90;;;;;;4141748;28;20309;-63
2021/12/17 05:35:51;;;;;;;24.73;12.90;;;3.20;99.90;;;;;;4139276;28;20291;-63
2021/12/17 05:37:52;;;;;;;25.97;14.30;;;3.20;99.90;;;;;;4131120;28;20354;-59
2021/12/17 05:39:54;;;;;;;28.47;13.60;;;3.20;99.90;;;;;;4137035;28;20256;-67
2021/12/17 05:41:55;;;;;;;26.73;14.93;;;3.20;99.90;;;;;;4140559;28;20353;-63
2021/12/17 05:43:57;;;;;;;27.90;13.67;;;3.20;99.90;;;;;;4140802;28;20744;-66
2021/12/17 05:48:10;;;;;;;27.60;14.53;;;3.20;99.90;;;;;;4140765;28;20279;-62
2021/12/17 05:50:11;;;;;;;29.13;14.53;;;3.20;99.90;;;;;;4139905;28;20272;-62
2021/12/17 05:52:13;;;;;;;26.43;14.17;;;3.20;99.90;;;;;;4140679;28;20748;-62
2021/12/17 05:54:14;;;;;;;25.67;14.27;;;3.20;99.90;;;;;;4151759;28;20325;-63
2021/12/17 05:56:16;;;;;;;28.83;14.57;;;3.10;99.90;;;;;;4156503;28;20356;-63
2021/12/17 05:58:17;;;;;;;29.47;15.90;;;3.10;99.90;;;;;;4155893;28;20270;-60
2021/12/17 06:00:20;;;;;;;37.57;20.27;;;3.10;99.90;;;;;;4156878;28;20762;-64
2021/12/17 06:02:21;;;;;;;36.07;17.03;;;3.10;99.90;;;;;;4155995;28;21084;-65
2021/12/17 06:04:22;;;;;;;32.37;14.73;;;3.10;99.90;;;;;;4157346;28;20259;-63
2021/12/17 06:06:38;;;;;;;27.50;15.07;;;3.10;99.90;;;;;;4156598;28;20758;-64
2021/12/17 06:08:40;;;;;;;27.13;14.87;;;3.10;99.90;;;;;;4157414;28;21075;-65
2021/12/17 06:10:42;;;;;;;31.57;15.33;;;3.00;99.90;;;;;;4155818;28;20674;-63
2021/12/17 06:12:43;;;;;;;29.13;15.80;;;3.10;99.90;;;;;;4156904;28;20999;-63
2021/12/17 06:14:44;;;;;;;30.13;14.70;;;3.10;99.90;;;;;;4155776;28;20646;-64
2021/12/17 06:16:45;;;;;;;31.33;15.87;;;3.00;99.90;;;;;;4157475;28;20287;-64
2021/12/17 06:18:46;;;;;;;35.37;16.43;;;3.10;99.90;;;;;;4155749;28;20271;-69
2021/12/17 06:20:48;;;;;;;34.13;16.77;;;3.10;99.90;;;;;;4156503;28;20694;-64
2021/12/17 06:22:50;;;;;;;28.93;14.97;;;3.10;99.90;;;;;;4156017;28;20275;-67
2021/12/17 06:24:52;;;;;;;29.10;14.93;;;3.10;99.90;;;;;;4156264;28;20727;-64
2021/12/17 06:26:53;;;;;;;28.93;15.90;;;3.10;99.90;;;;;;4156508;28;20508;-63
2021/12/17 06:28:54;;;;;;;28.43;16.30;;;3.10;99.90;;;;;;4156316;28;20773;-62
2021/12/17 06:30:55;;;;;;;33.20;16.77;;;3.10;99.90;;;;;;4157008;28;20381;-63
2021/12/17 06:32:56;;;;;;;32.23;15.70;;;3.10;99.90;;;;;;4155071;28;20304;-64
2021/12/17 06:34:57;;;;;;;31.10;14.70;;;3.10;99.90;;;;;;4156453;28;20751;-64
2021/12/17 06:36:59;;;;;;;29.10;15.33;;;3.10;99.90;;;;;;4156220;28;20291;-64
2021/12/17 06:39:00;;;;;;;29.33;14.93;;;3.10;99.90;;;;;;4156714;28;20266;-63
2021/12/17 06:41:01;;;;;;;28.30;14.97;;;3.00;99.90;;;;;;4155360;28;20271;-64
2021/12/17 06:43:03;;;;;;;28.10;15.10;;;3.10;99.90;;;;;;4153461;28;20336;-64
2021/12/17 06:45:09;;;;;;;26.73;14.30;;;3.10;99.90;;;;;;4139859;28;21118;-63
2021/12/17 06:47:23;;;;;;;33.90;15.63;;;3.10;99.90;;;;;;4140793;28;20294;-63
2021/12/17 07:17:34;;;;;;;28.70;13.67;;;3.30;99.90;;;;;;4142576;28;20357;-63
2021/12/17 07:24:03;;;;;;;26.47;13.27;;;3.40;99.90;;;;;;4134516;28;20298;-68
2021/12/17 07:34:04;;;;;;;33.90;15.77;;;3.40;99.90;;;;;;4124022;28;20780;-61
2021/12/17 07:39:41;;;;;;;29.17;14.70;;;3.30;99.90;;;;;;4159886;28;20255;-62
2021/12/17 07:41:43;;;;;;;32.93;15.10;;;3.30;99.90;;;;;;4158565;28;20663;-59
2021/12/17 07:43:51;;;;;;;30.93;16.00;;;3.30;99.90;;;;;;4159043;28;20730;-63
2021/12/17 07:45:54;;;;;;;33.00;15.67;;;3.30;99.90;;;;;;4158340;28;20274;-62
2021/12/17 07:47:56;;;;;;;30.93;16.93;;;3.30;99.90;;;;;;4160402;28;20305;-66
2021/12/17 07:49:57;;;;;;;30.53;16.43;;;3.30;99.90;;;;;;4158636;28;20270;-62
2021/12/17 07:51:58;;;;;;;32.93;15.73;;;3.30;99.90;;;;;;4159833;28;20263;-67
2021/12/17 07:53:59;;;;;;;31.40;17.10;;;3.20;99.90;;;;;;4158986;28;20743;-69
2021/12/17 07:56:03;;;;;;;31.53;16.00;;;3.20;99.90;;;;;;4158703;28;20332;-67
2021/12/17 07:58:04;;;;;;;33.93;15.73;;;3.20;99.90;;;;;;4158580;28;20761;-62
2021/12/17 08:00:06;;;;;;;31.90;15.30;;;3.20;99.90;;;;;;4157603;28;20286;-62
2021/12/17 08:02:08;;;;;;;34.27;15.60;;;3.20;99.90;;;;;;4158611;28;20271;-61
2021/12/17 08:04:10;;;;;;;28.30;14.63;;;3.20;99.90;;;;;;4158466;28;20279;-64
2021/12/17 08:06:11;;;;;;;30.63;17.23;;;3.20;99.90;;;;;;4159177;28;20271;-62
2021/12/17 08:08:13;;;;;;;28.93;14.60;;;3.20;99.90;;;;;;4157909;28;20282;-68
2021/12/17 08:10:14;;;;;;;29.20;15.70;;;3.20;99.90;;;;;;4159212;28;20278;-68
2021/12/17 08:12:17;;;;;;;29.77;14.57;;;3.10;99.90;;;;;;4157689;28;20271;-62
2021/12/17 08:14:18;;;;;;;26.90;14.10;;;3.20;99.90;;;;;;4157961;28;20286;-65
2021/12/17 08:23:28;;;;;;;23.33;12.33;;;3.70;99.90;;;;;;4159490;28;20324;-68
2021/12/17 08:25:41;;;;;;;23.30;11.57;;;4.20;99.90;;;;;;4158022;28;20337;-61
2021/12/17 08:27:51;;;;;;;22.60;12.80;;;4.30;99.90;;;;;;4159575;28;20278;-62
2021/12/17 08:30:39;;;;;;;26.30;13.93;;;4.30;99.90;;;;;;4157521;28;20344;-63
2021/12/17 08:32:18;;;;;;;30.60;13.63;;;4.30;99.90;;;;;;4155900;28;20037;-63
2021/12/17 08:34:19;;;;;;;24.93;11.83;;;4.30;99.90;;;;;;4157185;28;20270;-62
2021/12/17 08:36:21;;;;;;;23.87;12.50;;;4.30;99.90;;;;;;4149330;28;21022;-62
2021/12/17 08:38:22;;;;;;;21.47;11.20;;;4.30;99.90;;;;;;4147334;28;20258;-61
2021/12/17 08:40:26;;;;;;;22.63;10.87;;;4.40;99.90;;;;;;4158913;28;20266;-61
2021/12/17 08:42:28;;;;;;;21.73;11.27;;;4.50;99.90;;;;;;4158124;28;20259;-63
2021/12/17 08:44:29;;;;;;;21.13;11.17;;;4.60;99.90;;;;;;4158399;28;20263;-63
2021/12/17 08:46:31;;;;;;;21.33;11.03;;;4.70;99.90;;;;;;4158396;28;20356;-60
2021/12/17 08:48:32;;;;;;;25.30;11.87;;;4.60;99.90;;;;;;4158051;28;20685;-62
2021/12/17 08:50:34;;;;;;;25.43;11.67;;;4.70;99.90;;;;;;4157136;28;20657;-61
2021/12/17 08:52:35;;;;;;;22.00;10.43;;;4.70;99.90;;;;;;4158148;28;20321;-62
2021/12/17 08:54:37;;;;;;;29.03;12.50;;;4.60;99.90;;;;;;4157351;28;20274;-62
2021/12/17 08:56:45;;;;;;;17.80;10.27;;;4.60;99.90;;;;;;4157969;28;20344;-65
2021/12/17 08:58:47;;;;;;;21.83;11.60;;;4.70;99.90;;;;;;4156519;28;20293;-61
2021/12/17 09:00:48;;;;;;;25.93;10.67;;;4.60;99.90;;;;;;4157504;28;20421;-62
2021/12/17 09:02:50;;;;;;;19.67;10.63;;;4.50;99.90;;;;;;4142672;28;20317;-63
2021/12/17 09:04:51;;;;;;;21.03;10.47;;;4.40;99.90;;;;;;4140548;28;20259;-62
2021/12/17 09:06:53;;;;;;;19.90;11.40;;;4.40;99.90;;;;;;4141907;28;20322;-62
2021/12/17 09:08:56;;;;;;;22.83;11.10;;;4.30;99.90;;;;;;4140488;28;20271;-62
2021/12/17 09:10:57;;;;;;;23.17;12.03;;;4.20;99.90;;;;;;4141898;28;20275;-62
2021/12/17 09:12:58;;;;;;;19.00;11.57;;;4.20;99.90;;;;;;4141006;28;20272;-63
2021/12/17 09:14:59;;;;;;;19.47;10.33;;;4.20;99.90;;;;;;4142333;28;20259;-62
2021/12/17 09:17:00;;;;;;;15.50;9.30;;;4.10;99.90;;;;;;4140857;28;20659;-62
2021/12/17 09:19:03;;;;;;;26.40;11.07;;;4.10;99.90;;;;;;4141823;28;20267;-61
2021/12/17 09:21:04;;;;;;;22.13;10.17;;;4.00;99.90;;;;;;4140532;28;20268;-62
2021/12/17 09:23:06;;;;;;;19.37;10.57;;;4.00;99.90;;;;;;4141343;28;20333;-62
2021/12/17 09:25:07;;;;;;;23.70;10.93;;;4.00;99.90;;;;;;4141018;28;20334;-61
2021/12/17 09:27:08;;;;;;;22.73;11.00;;;4.00;99.90;;;;;;4141772;28;20310;-62
2021/12/17 09:29:10;;;;;;;21.17;10.37;;;4.00;99.90;;;;;;4140077;28;20294;-62
2021/12/17 09:31:11;;;;;;;21.13;10.33;;;4.00;99.90;;;;;;4140953;28;20322;-63
2021/12/17 09:33:13;;;;;;;22.60;11.03;;;4.00;99.90;;;;;;4141504;28;20648;-62
2021/12/17 09:35:14;;;;;;;24.40;9.63;;;4.00;99.90;;;;;;4156709;28;20263;-62
2021/12/17 09:37:17;;;;;;;23.00;10.73;;;4.00;99.90;;;;;;4158107;28;20344;-62
2021/12/17 09:39:18;;;;;;;17.20;10.30;;;4.00;99.90;;;;;;4156413;28;20333;-63
2021/12/17 09:41:22;;;;;;;22.87;11.37;;;4.00;99.90;;;;;;4157597;28;20791;-60
2021/12/17 09:43:23;;;;;;;21.80;11.20;;;4.00;99.90;;;;;;4156148;28;20274;-61
2021/12/17 09:45:24;;;;;;;20.30;10.90;;;4.00;99.90;;;;;;4157619;28;20275;-60
2021/12/17 09:47:26;;;;;;;18.43;10.53;;;4.00;99.90;;;;;;4156208;28;20340;-60
2021/12/17 09:49:27;;;;;;;17.00;9.00;;;4.00;99.90;;;;;;4157194;28;20271;-60
2021/12/17 09:51:28;;;;;;;20.90;9.73;;;4.10;99.90;;;;;;4139836;28;20275;-60
2021/12/17 09:53:31;;;;;;;18.33;9.53;;;4.10;99.90;;;;;;4141526;28;20909;-60
2021/12/17 09:55:32;;;;;;;17.93;9.47;;;4.10;99.90;;;;;;4140747;28;20771;-61
2021/12/17 09:57:36;;;;;;;24.80;10.70;;;4.10;99.90;;;;;;4141181;28;20291;-60
2021/12/17 09:59:37;;;;;;;18.53;9.23;;;4.10;99.90;;;;;;4140406;28;20283;-60
2021/12/17 10:01:40;;;;;;;22.40;8.90;;;4.10;99.90;;;;;;4140197;28;20317;-61
2021/12/17 10:03:41;;;;;;;18.97;10.27;;;4.10;99.90;;;;;;4140343;28;20527;-61
2021/12/17 10:05:43;;;;;;;17.63;8.97;;;4.20;99.90;;;;;;4140646;28;20399;-62
2021/12/17 10:07:44;;;;;;;19.97;9.40;;;4.20;99.90;;;;;;4141151;28;20335;-62
2021/12/17 10:09:55;;;;;;;20.40;9.93;;;4.20;99.90;;;;;;4140709;28;20353;-61
2021/12/17 10:12:03;;;;;;;;;;;4.20;99.90;;;;;;4141623;28;20325;-61
2021/12/17 10:14:24;;;;;;;20.73;10.40;;;4.20;99.90;;;;;;4140124;28;19988;-61
2021/12/17 10:16:25;;;;;;;21.75;10.43;;;4.30;99.90;;;;;;4140111;28;20349;-62
2021/12/17 10:18:38;;;;;;;18.53;8.37;;;4.30;99.90;;;;;;4138283;28;20524;-62
2021/12/17 10:20:54;;;;;;;17.80;9.40;;;4.30;99.90;;;;;;4140256;28;20275;-62
2021/12/17 10:22:59;;;;;;;15.37;8.43;;;4.40;99.90;;;;;;4140111;28;20264;-61
2021/12/17 10:25:09;;;;;;;16.70;8.23;;;4.40;99.90;;;;;;4139943;28;20302;-61
2021/12/17 10:27:26;;;;;;;15.88;8.13;;;4.40;99.90;;;;;;4139855;28;20267;-62
2021/12/17 10:29:28;;;;;;;19.03;8.83;;;4.40;99.90;;;;;;4151962;28;20544;-60
2021/12/17 10:31:31;;;;;;;16.00;8.90;;;4.40;99.90;;;;;;4155616;28;20270;-61
2021/12/17 10:33:34;;;;;;;16.07;9.40;;;4.40;99.90;;;;;;4156531;28;20845;-60
2021/12/17 10:35:43;;;;;;;15.50;8.90;;;4.40;99.90;;;;;;4155398;28;20259;-60
2021/12/17 10:37:57;;;;;;;14.00;8.10;;;4.40;99.90;;;;;;4156998;28;20844;-60
2021/12/17 10:39:58;;;;;;;16.63;8.43;;;4.40;99.90;;;;;;4156005;28;20270;-60
2021/12/17 10:42:00;;;;;;;17.77;9.23;;;4.50;99.90;;;;;;4156800;28;20263;-61
2021/12/17 10:44:08;;;;;;;22.97;9.73;;;4.60;99.90;;;;;;4155612;28;20262;-62
2021/12/17 10:46:29;;;;;;;15.20;7.93;;;4.70;99.90;;;;;;4154956;28;20296;-62
2021/12/17 10:48:47;;;;;;;;;;;4.80;99.90;;;;;;4156167;28;20275;-61
2021/12/17 10:51:01;;;;;;;13.70;6.73;;;4.80;99.90;;;;;;4156850;28;19909;-61
2021/12/17 10:53:07;;;;;;;18.00;8.67;;;4.90;99.90;;;;;;4156269;28;20742;-62
2021/12/17 10:55:16;;;;;;;11.73;6.47;;;4.90;99.90;;;;;;4156770;28;20840;-62
2021/12/17 10:57:17;;;;;;;13.70;7.13;;;4.90;99.90;;;;;;4155382;28;20302;-61
2021/12/17 10:59:20;;;;;;;18.60;7.73;;;4.90;99.90;;;;;;4153173;28;20380;-61
2021/12/17 11:01:35;;;;;;;14.70;7.50;;;5.00;99.90;;;;;;4138794;28;20310;-62
2021/12/17 11:03:40;;;;;;;17.20;7.30;;;5.10;99.90;;;;;;4139678;28;20267;-62
2021/12/17 11:05:42;;;;;;;19.90;8.10;;;5.20;99.90;;;;;;4138678;28;20694;-62
2021/12/17 11:07:48;;;;;;;18.30;7.83;;;5.20;99.90;;;;;;4140677;28;20663;-65
2021/12/17 11:09:57;;;;;;;18.30;8.20;;;5.20;99.90;;;;;;4138729;28;20271;-60
2021/12/17 11:12:02;;;;;;;13.53;8.00;;;5.10;99.90;;;;;;4140186;28;20987;-61
2021/12/17 11:14:03;;;;;;;13.13;8.17;;;5.00;99.90;;;;;;4138302;28;20297;-62
2021/12/17 11:16:04;;;;;;;11.97;6.97;;;5.00;99.90;;;;;;4140003;28;20337;-61
2021/12/17 11:18:06;;;;;;;12.07;7.07;;;4.90;99.90;;;;;;4138345;28;20294;-60
2021/12/17 11:20:09;;;;;;;18.20;6.40;;;4.80;99.90;;;;;;4140186;28;20279;-62
2021/12/17 11:22:10;;;;;;;14.67;7.20;;;4.70;99.90;;;;;;4143219;28;20333;-62
2021/12/17 11:24:13;;;;;;;15.47;7.03;;;4.60;99.90;;;;;;4156829;28;20649;-60
2021/12/17 11:26:14;;;;;;;17.87;6.90;;;4.50;99.90;;;;;;4155343;28;20283;-60
2021/12/17 11:28:16;;;;;;;20.10;8.43;;;4.50;99.90;;;;;;4156372;28;20275;-61
2021/12/17 11:30:22;;;;;;;18.03;7.90;;;4.50;99.90;;;;;;4155818;28;20246;-61
2021/12/17 11:32:24;;;;;;;16.93;7.00;;;4.40;99.90;;;;;;4156211;28;20267;-62
2021/12/17 11:34:26;;;;;;;12.60;6.17;;;4.40;99.90;;;;;;4156007;28;20273;-60
2021/12/17 11:36:28;;;;;;;18.17;7.87;;;4.30;99.90;;;;;;4156285;28;20275;-61
2021/12/17 11:38:29;;;;;;;11.73;6.03;;;4.30;99.90;;;;;;4156904;28;20298;-61
2021/12/17 11:41:05;;;;;;;11.77;6.67;;;4.30;99.90;;;;;;4155346;28;20270;-61
2021/12/17 11:43:18;;;;;;;14.77;7.77;;;4.20;99.90;;;;;;4155244;28;20301;-61
2021/12/17 11:45:23;;;;;;;14.70;6.83;;;4.20;99.90;;;;;;4154318;28;20301;-61
2021/12/17 11:47:33;;;;;;;23.03;8.70;;;4.20;99.90;;;;;;4156026;28;20850;-61
2021/12/17 11:49:52;;;;;;;17.13;7.53;;;4.20;99.90;;;;;;4158064;28;20693;-60
2021/12/17 11:51:55;;;;;;;14.67;7.50;;;4.30;99.90;;;;;;4156426;28;20041;-61
2021/12/17 11:54:05;;;;;;;12.87;6.10;;;4.30;99.90;;;;;;4158971;28;20263;-61
2021/12/17 11:56:06;;;;;;;21.67;6.47;;;4.30;99.90;;;;;;4158389;28;20266;-60
2021/12/17 11:58:12;;;;;;;12.27;7.07;;;4.40;99.90;;;;;;4158290;28;20282;-63
2021/12/17 12:00:15;;;;;;;14.03;7.23;;;4.40;99.90;;;;;;4158496;28;20329;-60
2021/12/17 12:02:22;;;;;;;12.13;6.30;;;4.50;99.90;;;;;;4158107;28;20368;-62
2021/12/17 12:04:32;;;;;;;12.67;5.97;;;4.60;99.90;;;;;;4158889;28;20706;-64
2021/12/17 12:06:34;;;;;;;12.95;5.75;;;4.60;99.90;;;;;;4157948;28;20850;-61
2021/12/17 12:08:50;;;;;;;14.73;6.63;;;4.70;99.90;;;;;;4158966;28;20045;-61
2021/12/17 12:11:06;;;;;;;11.63;5.43;;;4.70;99.90;;;;;;4157830;28;20274;-63
2021/12/17 12:13:08;;;;;;;13.13;6.13;;;4.70;99.90;;;;;;4158431;28;20282;-62
2021/12/17 12:15:22;;;;;;;11.63;6.00;;;4.70;99.90;;;;;;4157778;28;20283;-62
2021/12/17 12:17:57;;;;;;;10.43;5.43;;;4.70;99.90;;;;;;4158441;28;20294;-61
2021/12/17 12:19:58;;;;;;;9.93;5.10;;;4.70;99.90;;;;;;4158429;28;20748;-61
2021/12/17 12:22:05;;;;;;;10.43;5.03;;;4.70;99.90;;;;;;4158176;28;20255;-61
2021/12/17 12:24:16;;;;;;;12.70;5.80;;;4.60;99.90;;;;;;4158263;28;20271;-62
2021/12/17 12:26:23;;;;;;;14.18;5.68;;;4.70;99.90;;;;;;4158319;28;20312;-61
2021/12/17 12:28:56;;;;;;;12.53;6.17;;;4.70;99.90;;;;;;4156341;28;20046;-60
2021/12/17 12:30:57;;;;;;;10.97;4.63;;;4.60;99.90;;;;;;4150406;28;20251;-60
2021/12/17 12:33:07;;;;;;;11.60;5.17;;;4.60;99.90;;;;;;4138398;28;20263;-61
2021/12/17 12:35:09;;;;;;;11.03;5.40;;;4.60;99.90;;;;;;4140871;28;21310;-61
2021/12/17 12:37:10;;;;;;;10.07;5.17;;;4.50;99.90;;;;;;4141696;28;20279;-58
2021/12/17 12:40:01;;;;;;;9.57;5.00;;;4.60;99.90;;;;;;4141497;28;20818;-62
2021/12/17 12:42:05;;;;;;;14.37;4.77;;;4.50;99.90;;;;;;4118196;28;20279;-59
2021/12/17 12:44:06;;;;;;;9.43;4.63;;;4.50;99.90;;;;;;4140525;28;20732;-60
2021/12/17 12:46:09;;;;;;;14.47;4.90;;;4.50;99.90;;;;;;4142104;28;20267;-60
2021/12/17 12:48:39;;;;;;;9.83;4.70;;;4.40;99.90;;;;;;4140573;28;20251;-61
2021/12/17 12:50:40;;;;;;;10.25;4.60;;;4.40;99.90;;;;;;4141892;28;20267;-61
2021/12/17 12:53:03;;;;;;;10.03;4.80;;;4.50;99.90;;;;;;4139362;28;20474;-60
2021/12/17 12:55:34;;;;;;;9.50;4.47;;;4.50;99.90;;;;;;4141710;28;21184;-61
2021/12/17 12:57:51;;;;;;;10.55;5.95;;;4.50;99.90;;;;;;4140339;28;20303;-61
2021/12/17 12:59:54;;;;;;;9.70;4.20;;;4.50;99.90;;;;;;4141259;28;20096;-60
2021/12/17 13:01:55;;;;;;;11.63;5.20;;;4.40;99.90;;;;;;4139570;28;20264;-60
2021/12/17 13:03:56;;;;;;;10.87;5.00;;;4.40;99.90;;;;;;4142096;28;20712;-61
2021/12/17 13:06:01;;;;;;;13.83;5.00;;;4.40;99.90;;;;;;4140557;28;20271;-60
2021/12/17 13:08:06;;;;;;;13.17;5.13;;;4.30;99.90;;;;;;4146621;28;20344;-62
2021/12/17 13:10:19;;;;;;;10.57;5.63;;;4.30;99.90;;;;;;4157131;28;20316;-61
2021/12/17 13:12:24;;;;;;;10.17;5.83;;;4.20;99.90;;;;;;4157691;28;21014;-58
2021/12/17 13:14:27;;;;;;;9.40;4.40;;;4.20;99.90;;;;;;4156376;28;20278;-61
2021/12/17 13:21:05;;;;;;;14.50;5.57;;;4.00;99.90;;;;;;4157511;28;20809;-60
2021/12/17 13:23:17;;;;;;;10.07;5.33;;;4.00;99.90;;;;;;4156693;28;20267;-64
2021/12/17 13:25:27;;;;;;;12.30;6.20;;;4.00;99.90;;;;;;4157945;28;20299;-61
2021/12/17 13:27:28;;;;;;;8.60;5.37;;;4.00;99.90;;;;;;4156588;28;20342;-61
2021/12/17 13:29:35;;;;;;;12.37;5.17;;;4.00;99.90;;;;;;4157614;28;20289;-61
2021/12/17 13:31:54;;;;;;;12.73;4.50;;;3.90;99.90;;;;;;4156340;28;20305;-61